Time;durP1;ratioP1;P1;durP2;ratioP2;P2;SDS_P1;SDS_P2;PMS_P1;PMS_P2;Temp;Humidity;BMP_temperature;BMP_pressure;BME280_temperature;BME280_humidity;BME280_pressure;Samples;Min_cycle;Max_cycle;Signal;HPM_P1;HPM_P2
2022/10/15 00:00:00;;;;;;;;;7.00;7.00;;;;;;;;5086906;27;45404;-74
2022/10/15 00:02:25;;;;;;;;;8.33;8.00;;;;;;;;5088684;27;45620;-73
2022/10/15 00:04:50;;;;;;;;;9.33;8.00;;;;;;;;5087481;27;46770;-73
2022/10/15 00:07:16;;;;;;;;;7.67;7.33;;;;;;;;5075444;27;46145;-73
2022/10/15 00:09:41;;;;;;;;;8.67;8.00;;;;;;;;5088978;27;45414;-74
2022/10/15 00:12:06;;;;;;;;;6.67;6.67;;;;;;;;5090022;27;45424;-74
2022/10/15 00:14:31;;;;;;;;;6.33;6.33;;;;;;;;5089724;27;45445;-73
2022/10/15 00:16:57;;;;;;;;;7.67;7.67;;;;;;;;5092363;27;45499;-73
2022/10/15 00:19:22;;;;;;;;;6.33;6.33;;;;;;;;5074650;28;45469;-73
2022/10/15 00:21:47;;;;;;;;;8.00;6.50;;;;;;;;5086329;27;45346;-73
2022/10/15 00:24:12;;;;;;;;;7.67;7.67;;;;;;;;5083484;27;45414;-73
2022/10/15 00:26:38;;;;;;;;;6.33;6.33;;;;;;;;5083059;27;46020;-73
2022/10/15 00:29:03;;;;;;;;;8.00;7.00;;;;;;;;5066984;28;45188;-73
2022/10/15 00:31:29;;;;;;;;;8.67;7.67;;;;;;;;5085613;27;45424;-73
2022/10/15 00:33:55;;;;;;;;;7.67;7.33;;;;;;;;5090861;27;45431;-73
2022/10/15 00:36:21;;;;;;;;;9.67;8.67;;;;;;;;5088543;27;45331;-73
2022/10/15 00:38:47;;;;;;;;;10.00;8.33;;;;;;;;5091961;27;45358;-73
2022/10/15 00:41:17;;;;;;;;;7.33;7.33;;;;;;;;5075553;27;45432;-73
2022/10/15 00:43:42;;;;;;;;;10.67;8.67;;;;;;;;5100417;27;45592;-73
2022/10/15 00:46:29;;;;;;;;;9.00;8.00;;;;;;;;5095933;27;45175;-73
2022/10/15 00:48:57;;;;;;;;;10.33;9.00;;;;;;;;5096831;27;45410;-73
2022/10/15 00:51:25;;;;;;;;;7.67;7.67;;;;;;;;5099549;27;45430;-73
2022/10/15 00:53:51;;;;;;;;;11.00;11.00;;;;;;;;5091063;27;45430;-73
2022/10/15 00:56:19;;;;;;;;;11.00;8.00;;;;;;;;5090863;27;45444;-73
2022/10/15 00:58:45;;;;;;;;;10.67;9.33;;;;;;;;5094885;27;45263;-73
2022/10/15 01:01:10;;;;;;;;;9.67;8.67;;;;;;;;5095552;27;45335;-73
2022/10/15 01:03:35;;;;;;;;;11.00;9.67;;;;;;;;5095203;27;45602;-73
2022/10/15 01:06:02;;;;;;;;;12.67;11.67;;;;;;;;5095663;27;46066;-73
2022/10/15 01:08:27;;;;;;;;;8.00;7.00;;;;;;;;5081335;27;45422;-73
2022/10/15 01:10:52;;;;;;;;;9.00;9.00;;;;;;;;5090360;27;45336;-73
2022/10/15 01:13:25;;;;;;;;;10.33;8.00;;;;;;;;5088590;27;45555;-73
2022/10/15 01:15:55;;;;;;;;;10.00;9.00;;;;;;;;5074989;27;48397;-73
2022/10/15 01:18:27;;;;;;;;;8.00;8.00;;;;;;;;5088796;27;45323;-73
2022/10/15 01:20:56;;;;;;;;;9.33;8.00;;;;;;;;5090282;27;45355;-73
2022/10/15 01:23:24;;;;;;;;;7.00;6.67;;;;;;;;5088547;27;45323;-73
2022/10/15 01:26:07;;;;;;;;;7.67;7.67;;;;;;;;5097753;27;45379;-74
2022/10/15 01:28:45;;;;;;;;;6.33;6.33;;;;;;;;5086193;27;45468;-73
2022/10/15 01:31:39;;;;;;;;;6.67;6.00;;;;;;;;5098086;27;45548;-73
2022/10/15 01:34:12;;;;;;;;;9.00;6.00;;;;;;;;5095925;27;45489;-74
2022/10/15 01:36:43;;;;;;;;;4.33;4.33;;;;;;;;5088635;27;45774;-74
2022/10/15 01:39:18;;;;;;;;;6.00;6.00;;;;;;;;5072883;27;45929;-74
2022/10/15 01:41:45;;;;;;;;;4.67;4.67;;;;;;;;5084819;27;45629;-74
2022/10/15 01:44:17;;;;;;;;;5.00;5.00;;;;;;;;5089749;27;45287;-74
2022/10/15 01:46:48;;;;;;;;;5.00;3.67;;;;;;;;5071238;27;46878;-74
2022/10/15 01:49:14;;;;;;;;;5.00;5.00;;;;;;;;5077782;27;45389;-74
2022/10/15 01:51:41;;;;;;;;;3.33;3.33;;;;;;;;5079704;27;45467;-74
2022/10/15 01:54:10;;;;;;;;;3.67;3.67;;;;;;;;5085468;27;45821;-74
2022/10/15 01:56:36;;;;;;;;;5.00;3.67;;;;;;;;5088878;27;46031;-75
2022/10/15 01:59:01;;;;;;;;;4.00;3.67;;;;;;;;5096693;27;46020;-74
2022/10/15 02:01:27;;;;;;;;;5.00;4.00;;;;;;;;5092800;27;45450;-73
2022/10/15 02:03:52;;;;;;;;;5.67;4.67;;;;;;;;5097677;27;45508;-74
2022/10/15 02:06:33;;;;;;;;;2.33;2.33;;;;;;;;5092493;27;45620;-73
2022/10/15 02:09:01;;;;;;;;;3.00;3.00;;;;;;;;5074505;27;45304;-74
2022/10/15 02:11:28;;;;;;;;;5.67;3.33;;;;;;;;5092995;27;45750;-75
2022/10/15 02:13:53;;;;;;;;;4.33;3.33;;;;;;;;5084626;27;45296;-75
2022/10/15 02:16:40;;;;;;;;;3.00;3.00;;;;;;;;5093633;27;46493;-76
2022/10/15 02:19:11;;;;;;;;;2.00;2.00;;;;;;;;5087910;27;44785;-74
2022/10/15 02:21:55;;;;;;;;;6.00;5.00;;;;;;;;5091558;27;45474;-75
2022/10/15 02:24:24;;;;;;;;;4.67;3.00;;;;;;;;5095078;27;46082;-75
2022/10/15 02:26:51;;;;;;;;;2.33;2.33;;;;;;;;5091374;27;45021;-74
2022/10/15 02:29:19;;;;;;;;;3.00;3.00;;;;;;;;5091351;27;45755;-75
2022/10/15 02:31:46;;;;;;;;;3.00;3.00;;;;;;;;5084979;27;45261;-74
2022/10/15 02:34:14;;;;;;;;;5.00;5.00;;;;;;;;5094970;27;44879;-75
2022/10/15 02:36:40;;;;;;;;;3.33;3.00;;;;;;;;5080075;27;46275;-75
2022/10/15 02:39:06;;;;;;;;;3.67;3.67;;;;;;;;5096431;27;45303;-75
2022/10/15 02:41:32;;;;;;;;;2.00;2.00;;;;;;;;5100918;27;45341;-75
2022/10/15 02:43:58;;;;;;;;;5.00;3.00;;;;;;;;5091748;27;45665;-75
2022/10/15 02:46:23;;;;;;;;;4.33;4.00;;;;;;;;5088271;27;47097;-75
2022/10/15 02:48:48;;;;;;;;;3.33;2.67;;;;;;;;5096470;27;45261;-75
2022/10/15 02:51:13;;;;;;;;;2.67;2.67;;;;;;;;5094850;27;45485;-75
2022/10/15 02:53:38;;;;;;;;;3.00;3.00;;;;;;;;5074218;27;46636;-75
2022/10/15 02:56:04;;;;;;;;;3.00;3.00;;;;;;;;5092173;27;46427;-75
2022/10/15 02:58:29;;;;;;;;;4.33;3.00;;;;;;;;5085577;27;45291;-75
2022/10/15 03:00:55;;;;;;;;;4.00;3.00;;;;;;;;5081321;27;45238;-75
2022/10/15 03:03:20;;;;;;;;;4.67;3.67;;;;;;;;5075533;27;45636;-76
2022/10/15 03:05:45;;;;;;;;;5.00;2.00;;;;;;;;5071671;27;47004;-75
2022/10/15 03:08:10;;;;;;;;;5.00;3.33;;;;;;;;5095742;27;45288;-75
2022/10/15 03:10:35;;;;;;;;;3.67;2.67;;;;;;;;5092623;27;45417;-75
2022/10/15 03:13:02;;;;;;;;;1.00;1.00;;;;;;;;5099129;27;45410;-75
2022/10/15 03:15:28;;;;;;;;;3.00;3.00;;;;;;;;5088418;27;45236;-75
2022/10/15 03:17:53;;;;;;;;;4.00;2.00;;;;;;;;5086110;27;45313;-75
2022/10/15 03:20:18;;;;;;;;;1.33;1.00;;;;;;;;5088004;27;45634;-75
2022/10/15 03:22:43;;;;;;;;;3.00;1.33;;;;;;;;5085569;27;45265;-75
2022/10/15 03:25:08;;;;;;;;;2.00;2.00;;;;;;;;5088081;27;45254;-76
2022/10/15 03:27:34;;;;;;;;;1.33;1.33;;;;;;;;5095436;27;45351;-76
2022/10/15 03:29:59;;;;;;;;;2.67;2.33;;;;;;;;5090966;27;45449;-76
2022/10/15 03:32:24;;;;;;;;;5.00;2.00;;;;;;;;5076771;27;45382;-77
2022/10/15 03:34:49;;;;;;;;;2.67;2.67;;;;;;;;5079844;27;48274;-76
2022/10/15 03:37:14;;;;;;;;;1.67;1.67;;;;;;;;5082450;27;45173;-76
2022/10/15 03:39:39;;;;;;;;;2.00;1.00;;;;;;;;5073795;28;45296;-76
2022/10/15 03:42:05;;;;;;;;;1.00;1.00;;;;;;;;5079358;27;45390;-76
2022/10/15 03:44:30;;;;;;;;;0.00;0.00;;;;;;;;5096062;27;46156;-76
2022/10/15 03:46:55;;;;;;;;;0.00;0.00;;;;;;;;5070627;28;45371;-75
2022/10/15 03:49:20;;;;;;;;;3.67;2.00;;;;;;;;5096329;27;45375;-75
2022/10/15 03:51:45;;;;;;;;;7.00;5.00;;;;;;;;5090516;27;45523;-75
2022/10/15 03:54:11;;;;;;;;;0.00;0.00;;;;;;;;5083607;27;45416;-74
2022/10/15 03:56:36;;;;;;;;;0.67;0.67;;;;;;;;5090363;27;45303;-76
2022/10/15 03:59:01;;;;;;;;;0.00;0.00;;;;;;;;5086083;27;45706;-76
2022/10/15 04:01:26;;;;;;;;;1.00;1.00;;;;;;;;5092784;27;45324;-76
2022/10/15 04:03:52;;;;;;;;;0.00;0.00;;;;;;;;5083201;27;45276;-76
2022/10/15 04:06:17;;;;;;;;;0.00;0.00;;;;;;;;5090694;27;45423;-77
2022/10/15 04:08:42;;;;;;;;;0.33;0.00;;;;;;;;5085421;27;45302;-78
2022/10/15 04:11:08;;;;;;;;;1.33;0.00;;;;;;;;5092119;27;45339;-77
2022/10/15 04:13:33;;;;;;;;;0.00;0.00;;;;;;;;5085231;27;45327;-77
2022/10/15 04:15:58;;;;;;;;;0.00;0.00;;;;;;;;5089599;27;45356;-77
2022/10/15 04:18:23;;;;;;;;;1.00;0.00;;;;;;;;5090989;27;45455;-76
2022/10/15 04:20:48;;;;;;;;;0.00;0.00;;;;;;;;5090609;27;45334;-76
2022/10/15 04:23:14;;;;;;;;;0.00;0.00;;;;;;;;5087511;27;46381;-75
2022/10/15 04:25:39;;;;;;;;;0.00;0.00;;;;;;;;5075399;28;45346;-75
2022/10/15 04:28:05;;;;;;;;;1.00;1.00;;;;;;;;5083257;27;45288;-76
2022/10/15 04:30:30;;;;;;;;;0.33;0.33;;;;;;;;5093021;27;45761;-76
2022/10/15 04:32:55;;;;;;;;;0.67;0.67;;;;;;;;5085793;27;46075;-76
2022/10/15 04:35:20;;;;;;;;;3.00;1.00;;;;;;;;5097135;27;47093;-75
2022/10/15 04:37:46;;;;;;;;;3.00;1.00;;;;;;;;5102650;27;45231;-76
2022/10/15 04:40:12;;;;;;;;;1.00;1.00;;;;;;;;5091442;27;45234;-76
2022/10/15 04:42:37;;;;;;;;;3.00;3.00;;;;;;;;5091835;27;46078;-75
2022/10/15 04:45:02;;;;;;;;;1.00;1.00;;;;;;;;5094814;27;45398;-76
2022/10/15 04:47:27;;;;;;;;;1.33;1.33;;;;;;;;5089283;27;45591;-76
2022/10/15 04:49:53;;;;;;;;;2.33;2.33;;;;;;;;5087658;27;45440;-76
2022/10/15 04:52:18;;;;;;;;;1.33;1.00;;;;;;;;5092760;27;45901;-76
2022/10/15 04:54:43;;;;;;;;;1.67;1.67;;;;;;;;5070340;27;45905;-75
2022/10/15 04:57:09;;;;;;;;;1.67;1.67;;;;;;;;5090723;27;45292;-76
2022/10/15 04:59:34;;;;;;;;;1.00;1.00;;;;;;;;5084734;27;45271;-76
2022/10/15 05:01:59;;;;;;;;;2.00;2.00;;;;;;;;5087441;27;45304;-77
2022/10/15 05:04:24;;;;;;;;;0.33;0.33;;;;;;;;5084408;27;45391;-76
2022/10/15 05:06:49;;;;;;;;;1.00;1.00;;;;;;;;5091488;27;45252;-76
2022/10/15 05:09:15;;;;;;;;;0.00;0.00;;;;;;;;5099386;27;45406;-76
2022/10/15 05:11:40;;;;;;;;;2.00;1.00;;;;;;;;5080601;27;46468;-78
2022/10/15 05:14:05;;;;;;;;;1.00;1.00;;;;;;;;5091618;27;45367;-78
2022/10/15 05:16:31;;;;;;;;;0.67;0.00;;;;;;;;5070654;28;45447;-78
2022/10/15 05:18:58;;;;;;;;;1.00;1.00;;;;;;;;5082286;27;45606;-78
2022/10/15 05:21:23;;;;;;;;;0.00;0.00;;;;;;;;5087505;27;45519;-78
2022/10/15 05:23:49;;;;;;;;;1.00;0.00;;;;;;;;5096331;27;45358;-78
2022/10/15 05:26:24;;;;;;;;;0.00;0.00;;;;;;;;5091012;27;45375;-78
2022/10/15 05:28:49;;;;;;;;;0.00;0.00;;;;;;;;5092306;27;45548;-77
2022/10/15 05:31:16;;;;;;;;;1.00;0.00;;;;;;;;5092946;27;46359;-78
2022/10/15 05:33:41;;;;;;;;;0.00;0.00;;;;;;;;5080807;27;46507;-79
2022/10/15 05:36:17;;;;;;;;;0.00;0.00;;;;;;;;5091784;27;45474;-79
2022/10/15 05:38:43;;;;;;;;;0.00;0.00;;;;;;;;5095113;27;45201;-78
2022/10/15 05:41:08;;;;;;;;;1.00;0.00;;;;;;;;5085441;27;45869;-79
2022/10/15 05:43:33;;;;;;;;;0.33;0.33;;;;;;;;5095475;27;45388;-79
2022/10/15 05:45:59;;;;;;;;;0.00;0.00;;;;;;;;5089842;27;45467;-78
2022/10/15 05:48:24;;;;;;;;;0.00;0.00;;;;;;;;5098239;27;45229;-77
2022/10/15 05:50:49;;;;;;;;;0.00;0.00;;;;;;;;5088132;27;45382;-77
2022/10/15 05:53:14;;;;;;;;;0.00;0.00;;;;;;;;5089108;27;45236;-80
2022/10/15 05:55:39;;;;;;;;;1.00;0.00;;;;;;;;5087589;27;45268;-80
2022/10/15 05:58:05;;;;;;;;;1.00;0.00;;;;;;;;5091976;27;45217;-80
2022/10/15 06:00:30;;;;;;;;;0.00;0.00;;;;;;;;5086329;27;45461;-80
2022/10/15 06:02:55;;;;;;;;;0.00;0.00;;;;;;;;5085615;27;45377;-79
2022/10/15 06:05:21;;;;;;;;;0.00;0.00;;;;;;;;5088104;27;45347;-79
2022/10/15 06:07:46;;;;;;;;;1.00;0.00;;;;;;;;5091926;27;45403;-77
2022/10/15 06:10:11;;;;;;;;;1.00;0.00;;;;;;;;5092374;27;46698;-78
2022/10/15 06:12:38;;;;;;;;;1.00;1.00;;;;;;;;5089632;27;45344;-78
2022/10/15 06:15:03;;;;;;;;;2.67;1.00;;;;;;;;5092328;27;45468;-78
2022/10/15 06:17:28;;;;;;;;;0.00;0.00;;;;;;;;5091473;27;45312;-77
2022/10/15 06:19:53;;;;;;;;;0.00;0.00;;;;;;;;5085564;27;45332;-77
2022/10/15 06:22:19;;;;;;;;;1.00;0.00;;;;;;;;5066398;28;45417;-77
2022/10/15 06:24:44;;;;;;;;;0.00;0.00;;;;;;;;5093131;27;45665;-78
2022/10/15 06:27:10;;;;;;;;;0.00;0.00;;;;;;;;5093786;27;45360;-78
2022/10/15 06:29:35;;;;;;;;;0.67;0.67;;;;;;;;5084601;27;45178;-78
2022/10/15 06:32:00;;;;;;;;;1.00;1.00;;;;;;;;5091100;27;45450;-77
2022/10/15 06:34:26;;;;;;;;;0.33;0.33;;;;;;;;5075706;27;45176;-77
2022/10/15 06:36:51;;;;;;;;;3.00;2.00;;;;;;;;5091047;27;45240;-77
2022/10/15 06:39:16;;;;;;;;;0.00;0.00;;;;;;;;5082502;27;45389;-77
2022/10/15 06:41:41;;;;;;;;;0.00;0.00;;;;;;;;5092753;27;45212;-78
2022/10/15 06:44:07;;;;;;;;;0.00;0.00;;;;;;;;5071148;27;45638;-79
2022/10/15 06:46:32;;;;;;;;;0.00;0.00;;;;;;;;5093547;27;45205;-78
2022/10/15 06:48:57;;;;;;;;;2.00;1.00;;;;;;;;5087254;27;45415;-79
2022/10/15 06:51:22;;;;;;;;;0.00;0.00;;;;;;;;5080005;27;46016;-78
2022/10/15 06:53:47;;;;;;;;;2.00;1.00;;;;;;;;5081353;27;45583;-77
2022/10/15 06:56:13;;;;;;;;;0.00;0.00;;;;;;;;5096967;27;45473;-77
2022/10/15 06:58:40;;;;;;;;;0.00;0.00;;;;;;;;5095158;27;45569;-77
2022/10/15 07:01:06;;;;;;;;;1.00;1.00;;;;;;;;5091791;27;45563;-77
2022/10/15 07:03:31;;;;;;;;;1.00;1.00;;;;;;;;5083562;27;45351;-76
2022/10/15 07:06:00;;;;;;;;;0.00;0.00;;;;;;;;5069944;27;46912;-77
2022/10/15 07:08:26;;;;;;;;;0.00;0.00;;;;;;;;5070105;27;47198;-78
2022/10/15 07:10:51;;;;;;;;;0.00;0.00;;;;;;;;5088397;27;45610;-76
2022/10/15 07:13:16;;;;;;;;;0.00;0.00;;;;;;;;5085064;27;44749;-81
2022/10/15 07:15:43;;;;;;;;;0.00;0.00;;;;;;;;5088669;27;45641;-78
2022/10/15 07:18:08;;;;;;;;;0.00;0.00;;;;;;;;5085711;27;45666;-78
2022/10/15 07:20:33;;;;;;;;;0.00;0.00;;;;;;;;5092829;27;45275;-74
2022/10/15 07:23:00;;;;;;;;;0.33;0.00;;;;;;;;5075802;27;44725;-77
2022/10/15 07:25:26;;;;;;;;;0.00;0.00;;;;;;;;5071630;27;47157;-77
2022/10/15 07:27:51;;;;;;;;;0.00;0.00;;;;;;;;5090664;27;46044;-78
2022/10/15 07:30:17;;;;;;;;;0.00;0.00;;;;;;;;5088088;27;45550;-79
2022/10/15 07:32:42;;;;;;;;;0.00;0.00;;;;;;;;5084343;27;45287;-76
2022/10/15 07:35:07;;;;;;;;;0.00;0.00;;;;;;;;5085813;27;46332;-74
2022/10/15 07:37:32;;;;;;;;;1.00;0.00;;;;;;;;5083391;27;46100;-75
2022/10/15 07:39:58;;;;;;;;;0.00;0.00;;;;;;;;5090402;27;45337;-73
2022/10/15 07:42:23;;;;;;;;;0.00;0.00;;;;;;;;5084303;27;45354;-74
2022/10/15 07:44:48;;;;;;;;;0.00;0.00;;;;;;;;5086070;27;45343;-74
2022/10/15 07:47:13;;;;;;;;;2.67;2.67;;;;;;;;5089156;27;46279;-73
2022/10/15 07:49:38;;;;;;;;;0.00;0.00;;;;;;;;5070624;27;45342;-72
2022/10/15 07:52:04;;;;;;;;;1.00;1.00;;;;;;;;5087312;27;45282;-74
2022/10/15 07:54:31;;;;;;;;;1.00;0.00;;;;;;;;5081279;27;45302;-72
2022/10/15 07:56:56;;;;;;;;;0.00;0.00;;;;;;;;5096879;27;45459;-75
2022/10/15 07:59:21;;;;;;;;;1.00;0.00;;;;;;;;5079313;27;45427;-74
2022/10/15 08:01:47;;;;;;;;;0.00;0.00;;;;;;;;5093444;27;45347;-75
2022/10/15 08:04:12;;;;;;;;;0.00;0.00;;;;;;;;5083040;27;45647;-74
2022/10/15 08:06:37;;;;;;;;;1.00;0.00;;;;;;;;5081725;27;48229;-75
2022/10/15 08:09:03;;;;;;;;;0.33;0.00;;;;;;;;5072806;27;45617;-75
2022/10/15 08:11:28;;;;;;;;;0.00;0.00;;;;;;;;5090090;27;45243;-75
2022/10/15 08:13:54;;;;;;;;;0.00;0.00;;;;;;;;5083274;27;45708;-75
2022/10/15 08:16:19;;;;;;;;;0.00;0.00;;;;;;;;5067640;28;47519;-74
2022/10/15 08:18:44;;;;;;;;;0.00;0.00;;;;;;;;5092816;27;45167;-74
2022/10/15 08:21:10;;;;;;;;;0.67;0.00;;;;;;;;5090048;27;45364;-74
2022/10/15 08:23:35;;;;;;;;;0.00;0.00;;;;;;;;5096568;27;45580;-77
2022/10/15 08:26:01;;;;;;;;;0.00;0.00;;;;;;;;5091921;27;45356;-76
2022/10/15 08:28:26;;;;;;;;;0.00;0.00;;;;;;;;5098885;27;45357;-76
2022/10/15 08:30:52;;;;;;;;;0.00;0.00;;;;;;;;5092484;27;45416;-78
2022/10/15 08:33:17;;;;;;;;;0.00;0.00;;;;;;;;5092443;27;45491;-76
2022/10/15 08:35:42;;;;;;;;;0.00;0.00;;;;;;;;5088626;27;45412;-76
2022/10/15 08:38:08;;;;;;;;;0.00;0.00;;;;;;;;5097463;27;45338;-78
2022/10/15 08:40:34;;;;;;;;;0.00;0.00;;;;;;;;5092198;27;44792;-79
2022/10/15 08:42:59;;;;;;;;;0.00;0.00;;;;;;;;5066082;27;46143;-78
2022/10/15 08:45:27;;;;;;;;;1.00;1.00;;;;;;;;5084698;27;45456;-78
2022/10/15 08:47:59;;;;;;;;;0.00;0.00;;;;;;;;5095044;27;45398;-79
2022/10/15 08:50:43;;;;;;;;;0.00;0.00;;;;;;;;5069359;27;45434;-78
2022/10/15 08:53:22;;;;;;;;;0.00;0.00;;;;;;;;5078833;28;45344;-79
2022/10/15 08:55:50;;;;;;;;;0.00;0.00;;;;;;;;5076283;27;46936;-80
2022/10/15 08:58:29;;;;;;;;;0.00;0.00;;;;;;;;5070686;27;45236;-79
2022/10/15 09:01:01;;;;;;;;;0.00;0.00;;;;;;;;5070210;28;45538;-77
2022/10/15 09:03:43;;;;;;;;;0.00;0.00;;;;;;;;5084067;27;45419;-78
2022/10/15 09:06:19;;;;;;;;;0.00;0.00;;;;;;;;5092803;27;45440;-80
2022/10/15 09:08:52;;;;;;;;;0.00;0.00;;;;;;;;5086367;27;45535;-79
2022/10/15 09:11:26;;;;;;;;;1.33;0.00;;;;;;;;5074953;27;45224;-79
2022/10/15 09:13:52;;;;;;;;;0.00;0.00;;;;;;;;5085836;27;45185;-79
2022/10/15 09:16:20;;;;;;;;;0.00;0.00;;;;;;;;5086684;27;45362;-79
2022/10/15 09:18:47;;;;;;;;;0.00;0.00;;;;;;;;5094607;27;45534;-79
2022/10/15 09:21:12;;;;;;;;;1.00;0.00;;;;;;;;5084777;27;45468;-76
2022/10/15 09:23:40;;;;;;;;;0.00;0.00;;;;;;;;5097625;27;45533;-76
2022/10/15 09:26:16;;;;;;;;;0.00;0.00;;;;;;;;5091128;27;45633;-76
2022/10/15 09:28:51;;;;;;;;;0.00;0.00;;;;;;;;5097665;27;45346;-79
2022/10/15 09:31:20;;;;;;;;;0.33;0.00;;;;;;;;5092131;27;45345;-79
2022/10/15 09:33:55;;;;;;;;;0.00;0.00;;;;;;;;5081634;27;45332;-78
2022/10/15 09:36:35;;;;;;;;;0.00;0.00;;;;;;;;5077045;27;48184;-78
2022/10/15 09:39:00;;;;;;;;;1.00;0.00;;;;;;;;5086241;27;45454;-78
2022/10/15 09:41:33;;;;;;;;;0.33;0.33;;;;;;;;5093631;27;45607;-78
2022/10/15 09:44:00;;;;;;;;;0.00;0.00;;;;;;;;5076215;27;45286;-78
2022/10/15 09:46:25;;;;;;;;;0.00;0.00;;;;;;;;5091719;27;45439;-77
2022/10/15 09:48:56;;;;;;;;;1.00;0.00;;;;;;;;5088674;27;45475;-78
2022/10/15 09:51:22;;;;;;;;;0.00;0.00;;;;;;;;5078090;28;45300;-78
2022/10/15 09:54:09;;;;;;;;;0.00;0.00;;;;;;;;5078837;27;45779;-77
2022/10/15 09:56:37;;;;;;;;;0.67;0.00;;;;;;;;5093628;27;46344;-77
2022/10/15 09:59:02;;;;;;;;;0.00;0.00;;;;;;;;5081973;27;45269;-78
2022/10/15 10:01:29;;;;;;;;;0.00;0.00;;;;;;;;5096060;27;45223;-78
2022/10/15 10:04:21;;;;;;;;;0.00;0.00;;;;;;;;5079224;27;45823;-78
2022/10/15 10:06:49;;;;;;;;;0.00;0.00;;;;;;;;5096611;27;45426;-77
2022/10/15 10:09:19;;;;;;;;;0.00;0.00;;;;;;;;5083512;27;45304;-78
2022/10/15 10:11:54;;;;;;;;;0.00;0.00;;;;;;;;5085039;27;45419;-77
2022/10/15 10:14:31;;;;;;;;;0.00;0.00;;;;;;;;5083631;27;45762;-77
2022/10/15 10:17:04;;;;;;;;;0.00;0.00;;;;;;;;5076748;27;46960;-77
2022/10/15 10:19:29;;;;;;;;;0.00;0.00;;;;;;;;5093453;27;45468;-78
2022/10/15 10:22:04;;;;;;;;;0.00;0.00;;;;;;;;5091970;27;46428;-77
2022/10/15 10:24:33;;;;;;;;;0.00;0.00;;;;;;;;5073589;28;46522;-77
2022/10/15 10:26:59;;;;;;;;;0.00;0.00;;;;;;;;5095113;27;46241;-77
2022/10/15 10:29:24;;;;;;;;;0.00;0.00;;;;;;;;5088330;27;45237;-77
2022/10/15 10:31:51;;;;;;;;;0.00;0.00;;;;;;;;5089604;27;45229;-77
2022/10/15 10:34:26;;;;;;;;;0.00;0.00;;;;;;;;5085097;27;45359;-77
2022/10/15 10:36:52;;;;;;;;;0.00;0.00;;;;;;;;5090209;27;45399;-77
2022/10/15 10:39:28;;;;;;;;;0.00;0.00;;;;;;;;5073729;27;45347;-77
2022/10/15 10:42:03;;;;;;;;;0.00;0.00;;;;;;;;5095394;27;45322;-77
2022/10/15 10:44:40;;;;;;;;;0.25;0.00;;;;;;;;5089878;27;45374;-77
2022/10/15 10:47:05;;;;;;;;;0.00;0.00;;;;;;;;5087388;27;45432;-76
2022/10/15 10:49:56;;;;;;;;;0.00;0.00;;;;;;;;5090740;27;45397;-77
2022/10/15 10:52:22;;;;;;;;;0.00;0.00;;;;;;;;5090718;27;45483;-76
2022/10/15 10:54:58;;;;;;;;;0.00;0.00;;;;;;;;5094307;27;45425;-77
2022/10/15 10:57:49;;;;;;;;;0.00;0.00;;;;;;;;5093142;27;45284;-78
2022/10/15 11:00:33;;;;;;;;;0.00;0.00;;;;;;;;5086217;27;45532;-77
2022/10/15 11:02:58;;;;;;;;;0.00;0.00;;;;;;;;5090151;27;45375;-76
2022/10/15 11:05:29;;;;;;;;;0.00;0.00;;;;;;;;5088033;27;45209;-77
2022/10/15 11:08:04;;;;;;;;;0.33;0.00;;;;;;;;5069411;28;47260;-77
2022/10/15 11:10:40;;;;;;;;;0.00;0.00;;;;;;;;5090937;27;45338;-77
2022/10/15 11:13:24;;;;;;;;;0.67;0.33;;;;;;;;5099122;27;44734;-77
2022/10/15 11:16:06;;;;;;;;;0.00;0.00;;;;;;;;5083303;27;45948;-77
2022/10/15 11:19:07;;;;;;;;;1.33;0.00;;;;;;;;5086196;27;45362;-78
2022/10/15 11:21:42;;;;;;;;;0.00;0.00;;;;;;;;4991380;28;45470;-78
2022/10/15 11:24:11;;;;;;;;;1.00;0.00;;;;;;;;5063225;27;45462;-78
2022/10/15 11:26:46;;;;;;;;;0.67;0.00;;;;;;;;5090653;27;45480;-77
2022/10/15 11:29:19;;;;;;;;;0.00;0.00;;;;;;;;5073196;27;48066;-77
2022/10/15 11:31:47;;;;;;;;;0.00;0.00;;;;;;;;5081913;27;45377;-77
2022/10/15 11:34:18;;;;;;;;;0.00;0.00;;;;;;;;5091650;27;45259;-77
2022/10/15 11:36:56;;;;;;;;;0.33;0.33;;;;;;;;5079013;27;46117;-77
2022/10/15 11:39:33;;;;;;;;;0.00;0.00;;;;;;;;5083105;27;45408;-77
2022/10/15 11:42:17;;;;;;;;;0.00;0.00;;;;;;;;5090200;27;45383;-77
2022/10/15 11:44:52;;;;;;;;;0.50;0.00;;;;;;;;5064910;28;45513;-76
2022/10/15 11:47:26;;;;;;;;;0.75;0.00;;;;;;;;5093727;27;45434;-76
2022/10/15 11:49:54;;;;;;;;;0.00;0.00;;;;;;;;5093956;27;45600;-76
2022/10/15 11:52:38;;;;;;;;;1.00;0.00;;;;;;;;5089338;27;45438;-76
2022/10/15 11:55:10;;;;;;;;;0.00;0.00;;;;;;;;5085195;27;45257;-76
2022/10/15 11:57:38;;;;;;;;;0.00;0.00;;;;;;;;5088815;27;45814;-76
2022/10/15 12:00:13;;;;;;;;;0.00;0.00;;;;;;;;5084939;27;45517;-76
2022/10/15 12:02:38;;;;;;;;;0.00;0.00;;;;;;;;5087594;27;45269;-76
2022/10/15 12:05:16;;;;;;;;;0.00;0.00;;;;;;;;5069283;28;45459;-76
2022/10/15 12:07:48;;;;;;;;;0.00;0.00;;;;;;;;5086220;27;45358;-76
2022/10/15 12:10:26;;;;;;;;;0.00;0.00;;;;;;;;5090913;27;45382;-76
2022/10/15 12:13:02;;;;;;;;;0.00;0.00;;;;;;;;5089421;27;45268;-76
2022/10/15 12:15:31;;;;;;;;;0.00;0.00;;;;;;;;5085952;27;45332;-76
2022/10/15 12:18:15;;;;;;;;;0.00;0.00;;;;;;;;5093140;27;45633;-76
2022/10/15 12:20:41;;;;;;;;;0.00;0.00;;;;;;;;5093186;27;46357;-76
2022/10/15 12:23:20;;;;;;;;;0.00;0.00;;;;;;;;5093066;27;45249;-76
2022/10/15 12:25:46;;;;;;;;;0.50;0.00;;;;;;;;5089337;27;45537;-75
2022/10/15 12:28:19;;;;;;;;;0.00;0.00;;;;;;;;5085392;27;45228;-76
2022/10/15 12:31:05;;;;;;;;;0.00;0.00;;;;;;;;5078167;27;47402;-76
2022/10/15 12:33:32;;;;;;;;;0.00;0.00;;;;;;;;5086983;27;45305;-75
2022/10/15 12:35:59;;;;;;;;;0.00;0.00;;;;;;;;5085940;27;45378;-76
2022/10/15 12:38:29;;;;;;;;;0.00;0.00;;;;;;;;5088703;27;45450;-75
2022/10/15 12:41:06;;;;;;;;;0.00;0.00;;;;;;;;5077146;27;47113;-75
2022/10/15 12:43:33;;;;;;;;;0.00;0.00;;;;;;;;5094470;27;45310;-75
2022/10/15 12:46:00;;;;;;;;;0.00;0.00;;;;;;;;5091543;27;45478;-76
2022/10/15 12:48:30;;;;;;;;;0.00;0.00;;;;;;;;5100413;27;45418;-76
2022/10/15 12:51:14;;;;;;;;;0.00;0.00;;;;;;;;5094912;27;45361;-76
2022/10/15 12:53:43;;;;;;;;;0.00;0.00;;;;;;;;5099359;27;45292;-76
2022/10/15 12:56:08;;;;;;;;;0.00;0.00;;;;;;;;5091782;27;45243;-76
2022/10/15 12:58:34;;;;;;;;;0.00;0.00;;;;;;;;5088186;27;45256;-76
2022/10/15 13:01:20;;;;;;;;;0.00;0.00;;;;;;;;5089345;27;45240;-76
2022/10/15 13:03:48;;;;;;;;;0.00;0.00;;;;;;;;5054945;27;45397;-76
2022/10/15 13:06:13;;;;;;;;;0.00;0.00;;;;;;;;5090940;27;45284;-75
2022/10/15 13:08:43;;;;;;;;;0.00;0.00;;;;;;;;5087782;27;45325;-75
2022/10/15 13:11:18;;;;;;;;;0.00;0.00;;;;;;;;5087755;27;46504;-75
2022/10/15 13:13:43;;;;;;;;;0.00;0.00;;;;;;;;5087378;27;45391;-75
2022/10/15 13:16:10;;;;;;;;;0.00;0.00;;;;;;;;5096844;27;45232;-75
2022/10/15 13:18:36;;;;;;;;;0.00;0.00;;;;;;;;5088727;27;45270;-75
2022/10/15 13:21:01;;;;;;;;;0.00;0.00;;;;;;;;5092828;27;45562;-75
2022/10/15 13:23:28;;;;;;;;;0.00;0.00;;;;;;;;5083325;27;45320;-75
2022/10/15 13:26:12;;;;;;;;;0.00;0.00;;;;;;;;5093242;27;45447;-75
2022/10/15 13:28:40;;;;;;;;;0.00;0.00;;;;;;;;5082117;27;45714;-75
2022/10/15 13:31:06;;;;;;;;;0.00;0.00;;;;;;;;5092324;27;45381;-75
2022/10/15 13:33:37;;;;;;;;;0.00;0.00;;;;;;;;5081233;27;45316;-75
2022/10/15 13:36:06;;;;;;;;;0.00;0.00;;;;;;;;5083043;27;45458;-75
2022/10/15 13:38:38;;;;;;;;;0.00;0.00;;;;;;;;5087443;27;45311;-75
2022/10/15 13:41:03;;;;;;;;;0.00;0.00;;;;;;;;5076681;27;47130;-74
2022/10/15 13:43:28;;;;;;;;;0.00;0.00;;;;;;;;5089265;27;45403;-75
2022/10/15 13:45:57;;;;;;;;;0.00;0.00;;;;;;;;5088400;27;45305;-74
2022/10/15 13:48:24;;;;;;;;;0.00;0.00;;;;;;;;5097480;27;45397;-75
2022/10/15 13:51:00;;;;;;;;;0.00;0.00;;;;;;;;5090239;27;46331;-74
2022/10/15 13:53:34;;;;;;;;;0.00;0.00;;;;;;;;5099880;27;46235;-74
2022/10/15 13:56:00;;;;;;;;;0.00;0.00;;;;;;;;5094223;27;45403;-74
2022/10/15 13:58:25;;;;;;;;;0.00;0.00;;;;;;;;5088125;27;45530;-74
2022/10/15 14:00:54;;;;;;;;;0.00;0.00;;;;;;;;5095726;27;45219;-74
2022/10/15 14:03:21;;;;;;;;;0.00;0.00;;;;;;;;5100432;27;45449;-74
2022/10/15 14:05:48;;;;;;;;;0.00;0.00;;;;;;;;5085643;27;45319;-74
2022/10/15 14:08:14;;;;;;;;;0.33;0.00;;;;;;;;5087717;27;45465;-74
2022/10/15 14:10:39;;;;;;;;;0.00;0.00;;;;;;;;5074199;27;46857;-74
2022/10/15 14:13:05;;;;;;;;;0.00;0.00;;;;;;;;5084381;27;45395;-74
2022/10/15 14:15:45;;;;;;;;;0.00;0.00;;;;;;;;5087146;27;45413;-74
2022/10/15 14:18:12;;;;;;;;;0.25;0.00;;;;;;;;5082001;27;45413;-74
2022/10/15 14:20:41;;;;;;;;;0.00;0.00;;;;;;;;5092135;27;45336;-74
2022/10/15 14:23:13;;;;;;;;;0.25;0.00;;;;;;;;5080317;27;45379;-74
2022/10/15 14:25:38;;;;;;;;;0.00;0.00;;;;;;;;5090380;27;45339;-74
2022/10/15 14:28:04;;;;;;;;;0.00;0.00;;;;;;;;5097240;27;45480;-74
2022/10/15 14:30:30;;;;;;;;;0.00;0.00;;;;;;;;5093352;27;45180;-74
2022/10/15 14:32:55;;;;;;;;;0.00;0.00;;;;;;;;5079704;27;45281;-74
2022/10/15 14:35:26;;;;;;;;;0.00;0.00;;;;;;;;5092513;27;44750;-74
2022/10/15 14:38:01;;;;;;;;;0.00;0.00;;;;;;;;5094079;27;45510;-74
2022/10/15 14:40:27;;;;;;;;;0.00;0.00;;;;;;;;5085702;27;46093;-74
2022/10/15 14:42:52;;;;;;;;;0.00;0.00;;;;;;;;5083007;27;45465;-74
2022/10/15 14:45:17;;;;;;;;;0.00;0.00;;;;;;;;5070236;28;45526;-75
2022/10/15 14:47:51;;;;;;;;;0.33;0.00;;;;;;;;5076710;27;47062;-74
2022/10/15 14:50:17;;;;;;;;;0.00;0.00;;;;;;;;5085954;27;45373;-72